Terminal Aerodrome Forecast
Issued by NWS

Home | Current Version | Previous Version | Text Only | Print | Product List | Glossary On
Versions: 1 2 3 4 5 6 7 8 9 10 11 12 13 14 15 16 17 18 19 20 21 22 23 24 25 26 27 28 29 30 31
770
FTUS41 KOKX 130831 AAA
TAFHPN
TAF AMD
KHPN 130831Z 1309/1406 28019G25KT P6SM SCT045
     FM131300 28022G35KT P6SM BKN050
     FM132100 27021G30KT P6SM SCT050 BKN200
     FM140100 25011G21KT P6SM BKN050 BKN100
     FM140500 25008KT 4SM -SN BKN030 BKN100
      AMD NOT SKED=

USA.gov is the U.S. government's official web portal to all federal, state and local government web resources and services.